sensor_id;sensor_type;location;lat;lon;timestamp;pressure;altitude;pressure_sealevel;temperature;humidity
6224;BME280;3145;42.726;23.342;2023-07-16T00:01:58;71167.13;;;-142.70;69.69
6224;BME280;3145;42.726;23.342;2023-07-16T00:04:26;71167.13;;;-142.70;69.91
6224;BME280;3145;42.726;23.342;2023-07-16T00:06:53;71169.16;;;-142.70;69.36
6224;BME280;3145;42.726;23.342;2023-07-16T00:09:20;71163.09;;;-142.70;69.42
6224;BME280;3145;42.726;23.342;2023-07-16T00:11:46;71173.16;;;-142.70;69.47
6224;BME280;3145;42.726;23.342;2023-07-16T00:14:13;71175.19;;;-142.70;69.22
6224;BME280;3145;42.726;23.342;2023-07-16T00:16:40;71183.25;;;-142.70;69.64
6224;BME280;3145;42.726;23.342;2023-07-16T00:19:06;71183.25;;;-142.70;69.74
6224;BME280;3145;42.726;23.342;2023-07-16T00:21:34;71191.28;;;-142.70;69.49
6224;BME280;3145;42.726;23.342;2023-07-16T00:24:03;71191.28;;;-142.70;69.87
6224;BME280;3145;42.726;23.342;2023-07-16T00:26:30;71199.34;;;-142.70;70.05
6224;BME280;3145;42.726;23.342;2023-07-16T00:28:57;71199.34;;;-142.70;69.82
6224;BME280;3145;42.726;23.342;2023-07-16T00:31:23;71201.38;;;-142.70;69.99
6224;BME280;3145;42.726;23.342;2023-07-16T00:33:50;71199.34;;;-142.70;69.64
6224;BME280;3145;42.726;23.342;2023-07-16T00:36:17;71201.38;;;-142.70;69.31
6224;BME280;3145;42.726;23.342;2023-07-16T00:38:45;71201.38;;;-142.70;69.22
6224;BME280;3145;42.726;23.342;2023-07-16T00:41:13;71199.34;;;-142.70;69.17
6224;BME280;3145;42.726;23.342;2023-07-16T00:43:39;71203.38;;;-142.70;68.96
6224;BME280;3145;42.726;23.342;2023-07-16T00:46:06;71197.34;;;-142.70;68.70
6224;BME280;3145;42.726;23.342;2023-07-16T00:48:33;71199.34;;;-142.70;68.92
6224;BME280;3145;42.726;23.342;2023-07-16T00:51:01;71201.38;;;-142.70;69.47
6224;BME280;3145;42.726;23.342;2023-07-16T00:53:30;71205.38;;;-142.70;69.18
6224;BME280;3145;42.726;23.342;2023-07-16T00:55:58;71207.41;;;-142.70;69.02
6224;BME280;3145;42.726;23.342;2023-07-16T00:58:25;71207.41;;;-142.70;68.67
6224;BME280;3145;42.726;23.342;2023-07-16T01:00:52;71203.38;;;-142.70;68.41
6224;BME280;3145;42.726;23.342;2023-07-16T01:03:19;71209.41;;;-142.70;68.54
6224;BME280;3145;42.726;23.342;2023-07-16T01:05:50;71201.38;;;-142.70;68.46
6224;BME280;3145;42.726;23.342;2023-07-16T01:08:21;71205.38;;;-142.70;68.46
6224;BME280;3145;42.726;23.342;2023-07-16T01:10:49;71207.41;;;-142.70;68.61
6224;BME280;3145;42.726;23.342;2023-07-16T01:13:17;71215.47;;;-142.70;68.96
6224;BME280;3145;42.726;23.342;2023-07-16T01:15:44;71219.50;;;-142.70;68.59
6224;BME280;3145;42.726;23.342;2023-07-16T01:18:10;71225.53;;;-142.70;68.78
6224;BME280;3145;42.726;23.342;2023-07-16T01:20:37;71223.50;;;-142.70;68.74
6224;BME280;3145;42.726;23.342;2023-07-16T01:23:24;71215.47;;;-142.70;68.71
6224;BME280;3145;42.726;23.342;2023-07-16T01:26:05;71223.50;;;-142.70;68.67
6224;BME280;3145;42.726;23.342;2023-07-16T01:28:48;71231.56;;;-142.70;69.09
6224;BME280;3145;42.726;23.342;2023-07-16T01:31:21;71231.56;;;-142.70;69.04
6224;BME280;3145;42.726;23.342;2023-07-16T01:33:49;71231.56;;;-142.70;69.06
6224;BME280;3145;42.726;23.342;2023-07-16T01:36:16;71235.59;;;-142.70;69.24
6224;BME280;3145;42.726;23.342;2023-07-16T01:38:44;71239.63;;;-142.70;69.31
6224;BME280;3145;42.726;23.342;2023-07-16T01:41:11;71247.69;;;-142.70;69.23
6224;BME280;3145;42.726;23.342;2023-07-16T01:43:38;71251.72;;;-142.70;69.62
6224;BME280;3145;42.726;23.342;2023-07-16T01:46:05;71255.72;;;-142.70;69.70
6224;BME280;3145;42.726;23.342;2023-07-16T01:48:34;71265.81;;;-142.70;69.95
6224;BME280;3145;42.726;23.342;2023-07-16T01:51:02;71267.81;;;-142.70;70.01
6224;BME280;3145;42.726;23.342;2023-07-16T01:53:29;71267.81;;;-142.70;70.15
6224;BME280;3145;42.726;23.342;2023-07-16T01:55:57;71273.84;;;-142.70;70.44
6224;BME280;3145;42.726;23.342;2023-07-16T01:58:23;71281.91;;;-142.70;70.43
6224;BME280;3145;42.726;23.342;2023-07-16T02:00:50;71277.88;;;-142.70;70.55
6224;BME280;3145;42.726;23.342;2023-07-16T02:03:17;71275.88;;;-142.70;70.40
6224;BME280;3145;42.726;23.342;2023-07-16T02:05:45;71283.94;;;-142.70;70.53
6224;BME280;3145;42.726;23.342;2023-07-16T02:08:12;71291.97;;;-142.70;71.10
6224;BME280;3145;42.726;23.342;2023-07-16T02:10:38;71287.97;;;-142.70;71.08
6224;BME280;3145;42.726;23.342;2023-07-16T02:13:05;71287.97;;;-142.70;71.18
6224;BME280;3145;42.726;23.342;2023-07-16T02:15:32;71296.00;;;-142.70;71.36
6224;BME280;3145;42.726;23.342;2023-07-16T02:17:59;71300.03;;;-142.70;71.56
6224;BME280;3145;42.726;23.342;2023-07-16T02:20:25;71314.13;;;-142.70;72.16
6224;BME280;3145;42.726;23.342;2023-07-16T02:22:53;71322.19;;;-142.70;72.66
6224;BME280;3145;42.726;23.342;2023-07-16T02:25:20;71330.25;;;-142.70;72.92
6224;BME280;3145;42.726;23.342;2023-07-16T02:27:47;71344.34;;;-142.70;73.89
6224;BME280;3145;42.726;23.342;2023-07-16T02:30:14;71360.44;;;-142.70;74.55
6224;BME280;3145;42.726;23.342;2023-07-16T02:32:41;71364.47;;;-142.70;74.91
6224;BME280;3145;42.726;23.342;2023-07-16T02:35:08;71372.53;;;-142.70;75.12
6224;BME280;3145;42.726;23.342;2023-07-16T02:37:35;71374.56;;;-142.70;75.51
6224;BME280;3145;42.726;23.342;2023-07-16T02:40:03;71380.59;;;-142.70;75.92
6224;BME280;3145;42.726;23.342;2023-07-16T02:42:30;71398.72;;;-142.70;76.42
6224;BME280;3145;42.726;23.342;2023-07-16T02:44:57;71392.69;;;-142.70;76.44
6224;BME280;3145;42.726;23.342;2023-07-16T02:47:24;71400.72;;;-142.70;76.62
6224;BME280;3145;42.726;23.342;2023-07-16T02:49:51;71412.81;;;-142.70;76.98
6224;BME280;3145;42.726;23.342;2023-07-16T02:52:18;71420.88;;;-142.70;77.93
6224;BME280;3145;42.726;23.342;2023-07-16T02:54:45;71445.03;;;-142.70;78.37
6224;BME280;3145;42.726;23.342;2023-07-16T02:57:13;71445.03;;;-142.70;78.97
6224;BME280;3145;42.726;23.342;2023-07-16T02:59:40;71461.16;;;-142.70;80.19
6224;BME280;3145;42.726;23.342;2023-07-16T03:02:06;71485.31;;;-142.70;80.94
6224;BME280;3145;42.726;23.342;2023-07-16T03:04:33;71485.31;;;-142.70;81.42
6224;BME280;3145;42.726;23.342;2023-07-16T03:07:00;71483.28;;;-142.70;81.44
6224;BME280;3145;42.726;23.342;2023-07-16T03:09:26;71481.28;;;-142.70;81.47
6224;BME280;3145;42.726;23.342;2023-07-16T03:11:53;71473.22;;;-142.70;81.18
6224;BME280;3145;42.726;23.342;2023-07-16T03:14:21;71469.19;;;-142.70;80.80
6224;BME280;3145;42.726;23.342;2023-07-16T03:16:48;71467.19;;;-142.70;80.54
6224;BME280;3145;42.726;23.342;2023-07-16T03:19:15;71469.19;;;-142.70;80.32
6224;BME280;3145;42.726;23.342;2023-07-16T03:21:41;71477.25;;;-142.70;80.47
6224;BME280;3145;42.726;23.342;2023-07-16T03:24:08;71485.31;;;-142.70;80.83
6224;BME280;3145;42.726;23.342;2023-07-16T03:26:35;71493.38;;;-142.70;81.15
6224;BME280;3145;42.726;23.342;2023-07-16T03:29:01;71493.38;;;-142.70;80.90
6224;BME280;3145;42.726;23.342;2023-07-16T03:31:29;71505.44;;;-142.70;81.24
6224;BME280;3145;42.726;23.342;2023-07-16T03:33:56;71505.44;;;-142.70;81.33
6224;BME280;3145;42.726;23.342;2023-07-16T03:36:23;71497.41;;;-142.70;81.24
6224;BME280;3145;42.726;23.342;2023-07-16T03:38:50;71483.28;;;-142.70;80.71
6224;BME280;3145;42.726;23.342;2023-07-16T03:41:17;71485.31;;;-142.70;80.27
6224;BME280;3145;42.726;23.342;2023-07-16T03:43:43;71481.28;;;-142.70;79.79
6224;BME280;3145;42.726;23.342;2023-07-16T03:46:10;71485.31;;;-142.70;79.84
6224;BME280;3145;42.726;23.342;2023-07-16T03:48:38;71483.28;;;-142.70;79.50
6224;BME280;3145;42.726;23.342;2023-07-16T03:51:05;71451.06;;;-142.70;78.75
6224;BME280;3145;42.726;23.342;2023-07-16T03:53:32;71420.88;;;-142.70;77.63
6224;BME280;3145;42.726;23.342;2023-07-16T03:55:58;71396.69;;;-142.70;76.29
6224;BME280;3145;42.726;23.342;2023-07-16T03:58:25;71400.72;;;-142.70;75.48
6224;BME280;3145;42.726;23.342;2023-07-16T04:00:53;71380.59;;;-142.70;74.86
6224;BME280;3145;42.726;23.342;2023-07-16T04:03:19;71384.63;;;-142.70;74.72
6224;BME280;3145;42.726;23.342;2023-07-16T04:05:48;71366.50;;;-142.70;74.69
6224;BME280;3145;42.726;23.342;2023-07-16T04:08:14;71344.34;;;-142.70;74.07
6224;BME280;3145;42.726;23.342;2023-07-16T04:10:41;71308.09;;;-142.70;72.37
6224;BME280;3145;42.726;23.342;2023-07-16T04:13:08;71263.78;;;-142.70;71.02
6224;BME280;3145;42.726;23.342;2023-07-16T04:15:34;71239.63;;;-142.70;68.80
6224;BME280;3145;42.726;23.342;2023-07-16T04:18:01;71209.41;;;-142.70;68.20
6224;BME280;3145;42.726;23.342;2023-07-16T04:20:29;71175.19;;;-142.70;67.11
6224;BME280;3145;42.726;23.342;2023-07-16T04:22:57;71147.00;;;-142.70;64.91
6224;BME280;3145;42.726;23.342;2023-07-16T04:25:24;71122.84;;;-142.70;64.16
6224;BME280;3145;42.726;23.342;2023-07-16T04:27:50;71167.13;;;-142.70;63.45
6224;BME280;3145;42.726;23.342;2023-07-16T04:30:17;71142.97;;;-142.70;64.14
6224;BME280;3145;42.726;23.342;2023-07-16T04:32:44;71159.06;;;-142.70;63.25
6224;BME280;3145;42.726;23.342;2023-07-16T04:35:11;71142.97;;;-142.70;63.15
6224;BME280;3145;42.726;23.342;2023-07-16T04:37:37;71130.88;;;-142.70;62.71
6224;BME280;3145;42.726;23.342;2023-07-16T04:40:07;71122.84;;;-142.70;61.48
6224;BME280;3145;42.726;23.342;2023-07-16T04:42:34;71159.06;;;-142.70;62.52
6224;BME280;3145;42.726;23.342;2023-07-16T04:45:01;71159.06;;;-142.70;62.85
6224;BME280;3145;42.726;23.342;2023-07-16T04:47:28;71185.25;;;-142.70;62.92
6224;BME280;3145;42.726;23.342;2023-07-16T04:49:54;71211.44;;;-142.70;63.89
6224;BME280;3145;42.726;23.342;2023-07-16T04:52:21;71239.63;;;-142.70;64.87
6224;BME280;3145;42.726;23.342;2023-07-16T04:54:48;71207.41;;;-142.70;65.26
6224;BME280;3145;42.726;23.342;2023-07-16T04:57:16;71209.41;;;-142.70;64.66
6224;BME280;3145;42.726;23.342;2023-07-16T04:59:42;71219.50;;;-142.70;64.58
6224;BME280;3145;42.726;23.342;2023-07-16T05:02:09;71225.53;;;-142.70;64.61
6224;BME280;3145;42.726;23.342;2023-07-16T05:04:36;71201.38;;;-142.70;64.44
6224;BME280;3145;42.726;23.342;2023-07-16T05:07:03;71181.22;;;-142.70;63.06
6224;BME280;3145;42.726;23.342;2023-07-16T05:09:30;71181.22;;;-142.70;63.58
6224;BME280;3145;42.726;23.342;2023-07-16T05:11:57;71120.81;;;-142.70;62.36
6224;BME280;3145;42.726;23.342;2023-07-16T05:14:27;71100.69;;;-142.70;60.22
6224;BME280;3145;42.726;23.342;2023-07-16T05:16:54;71116.78;;;-142.70;60.99
6224;BME280;3145;42.726;23.342;2023-07-16T05:19:21;71122.84;;;-142.70;61.13
6224;BME280;3145;42.726;23.342;2023-07-16T05:21:47;71126.84;;;-142.70;61.44
6224;BME280;3145;42.726;23.342;2023-07-16T05:24:14;71058.41;;;-142.70;60.53
6224;BME280;3145;42.726;23.342;2023-07-16T05:26:41;71006.03;;;-142.70;58.54
6224;BME280;3145;42.726;23.342;2023-07-16T05:29:08;70967.78;;;-142.70;56.74
6224;BME280;3145;42.726;23.342;2023-07-16T05:31:36;70973.81;;;-142.70;55.40
6224;BME280;3145;42.726;23.342;2023-07-16T05:34:02;70977.84;;;-142.70;55.52
6224;BME280;3145;42.726;23.342;2023-07-16T05:36:29;70981.88;;;-142.70;55.89
6224;BME280;3145;42.726;23.342;2023-07-16T05:38:56;70963.75;;;-142.70;55.26
6224;BME280;3145;42.726;23.342;2023-07-16T05:41:23;70961.75;;;-142.70;55.39
6224;BME280;3145;42.726;23.342;2023-07-16T05:43:49;70921.47;;;-142.70;54.30
6224;BME280;3145;42.726;23.342;2023-07-16T05:46:16;70953.69;;;-142.70;53.45
6224;BME280;3145;42.726;23.342;2023-07-16T05:48:44;70933.56;;;-142.70;52.91
6224;BME280;3145;42.726;23.342;2023-07-16T05:51:11;70913.41;;;-142.70;53.67
6224;BME280;3145;42.726;23.342;2023-07-16T05:53:37;70985.91;;;-142.70;53.42
6224;BME280;3145;42.726;23.342;2023-07-16T05:56:04;70993.97;;;-142.70;53.69
6224;BME280;3145;42.726;23.342;2023-07-16T05:58:31;70933.56;;;-142.70;51.53
6224;BME280;3145;42.726;23.342;2023-07-16T06:00:58;70929.53;;;-142.70;52.13
6224;BME280;3145;42.726;23.342;2023-07-16T06:03:24;70953.69;;;-142.70;52.97
6224;BME280;3145;42.726;23.342;2023-07-16T06:05:52;70941.59;;;-142.70;53.07
6224;BME280;3145;42.726;23.342;2023-07-16T06:08:19;70965.75;;;-142.70;52.77
6224;BME280;3145;42.726;23.342;2023-07-16T06:10:46;70909.38;;;-142.70;53.36
6224;BME280;3145;42.726;23.342;2023-07-16T06:13:12;70901.34;;;-142.70;51.59
6224;BME280;3145;42.726;23.342;2023-07-16T06:15:39;70901.34;;;-142.70;51.67
6224;BME280;3145;42.726;23.342;2023-07-16T06:18:06;70873.16;;;-142.70;51.28
6224;BME280;3145;42.726;23.342;2023-07-16T06:20:33;70832.88;;;-142.70;48.91
6224;BME280;3145;42.726;23.342;2023-07-16T06:23:01;70808.72;;;-142.70;49.47
6224;BME280;3145;42.726;23.342;2023-07-16T06:25:27;70804.69;;;-142.70;49.26
6224;BME280;3145;42.726;23.342;2023-07-16T06:27:54;70808.72;;;-142.70;48.70
6224;BME280;3145;42.726;23.342;2023-07-16T06:30:21;70851.00;;;-142.70;49.28
6224;BME280;3145;42.726;23.342;2023-07-16T06:32:47;70838.91;;;-142.70;48.83
6224;BME280;3145;42.726;23.342;2023-07-16T06:35:14;70857.03;;;-142.70;49.02
6224;BME280;3145;42.726;23.342;2023-07-16T06:37:41;70824.81;;;-142.70;48.83
6224;BME280;3145;42.726;23.342;2023-07-16T06:40:10;70889.25;;;-142.70;49.89
6224;BME280;3145;42.726;23.342;2023-07-16T06:42:37;70844.97;;;-142.70;49.26
6224;BME280;3145;42.726;23.342;2023-07-16T06:45:04;70832.88;;;-142.70;48.95
6224;BME280;3145;42.726;23.342;2023-07-16T06:47:31;70808.72;;;-142.70;48.27
6224;BME280;3145;42.726;23.342;2023-07-16T06:49:58;70748.31;;;-142.70;47.67
6224;BME280;3145;42.726;23.342;2023-07-16T06:52:25;70708.03;;;-142.70;45.80
6224;BME280;3145;42.726;23.342;2023-07-16T06:54:52;70732.19;;;-142.70;45.30
6224;BME280;3145;42.726;23.342;2023-07-16T06:57:21;70774.47;;;-142.70;47.59
6224;BME280;3145;42.726;23.342;2023-07-16T06:59:47;70748.31;;;-142.70;46.90
6224;BME280;3145;42.726;23.342;2023-07-16T07:02:15;70708.03;;;-142.70;45.16
6224;BME280;3145;42.726;23.342;2023-07-16T07:04:42;70693.94;;;-142.70;45.16
6224;BME280;3145;42.726;23.342;2023-07-16T07:07:09;70657.69;;;-142.70;45.11
6224;BME280;3145;42.726;23.342;2023-07-16T07:09:35;70643.59;;;-142.70;44.76
6224;BME280;3145;42.726;23.342;2023-07-16T07:12:03;70619.44;;;-142.70;43.49
6224;BME280;3145;42.726;23.342;2023-07-16T07:14:32;70687.91;;;-142.70;44.24
6224;BME280;3145;42.726;23.342;2023-07-16T07:16:59;70629.50;;;-142.70;44.69
6224;BME280;3145;42.726;23.342;2023-07-16T07:19:27;70635.56;;;-142.70;44.45
6224;BME280;3145;42.726;23.342;2023-07-16T07:21:53;70643.59;;;-142.70;44.68
6224;BME280;3145;42.726;23.342;2023-07-16T07:24:20;70633.53;;;-142.70;44.24
6224;BME280;3145;42.726;23.342;2023-07-16T07:26:47;70631.53;;;-142.70;43.34
6224;BME280;3145;42.726;23.342;2023-07-16T07:29:13;70635.56;;;-142.70;43.82
6224;BME280;3145;42.726;23.342;2023-07-16T07:31:41;70599.31;;;-142.70;43.29
6224;BME280;3145;42.726;23.342;2023-07-16T07:34:08;70573.13;;;-142.70;42.91
6224;BME280;3145;42.726;23.342;2023-07-16T07:36:35;70557.03;;;-142.70;42.42
6224;BME280;3145;42.726;23.342;2023-07-16T07:39:01;70551.00;;;-142.70;41.94
6224;BME280;3145;42.726;23.342;2023-07-16T07:41:28;70613.41;;;-142.70;43.34
6224;BME280;3145;42.726;23.342;2023-07-16T07:43:55;70619.44;;;-142.70;43.53
6224;BME280;3145;42.726;23.342;2023-07-16T07:46:22;70538.91;;;-142.70;42.30
6224;BME280;3145;42.726;23.342;2023-07-16T07:48:50;70482.53;;;-142.70;41.31
6224;BME280;3145;42.726;23.342;2023-07-16T07:51:16;70518.78;;;-142.70;40.97
6224;BME280;3145;42.726;23.342;2023-07-16T07:53:43;70470.47;;;-142.70;41.53
6224;BME280;3145;42.726;23.342;2023-07-16T07:56:10;70526.84;;;-142.70;41.35
6224;BME280;3145;42.726;23.342;2023-07-16T07:58:36;70506.69;;;-142.70;41.83
6224;BME280;3145;42.726;23.342;2023-07-16T08:01:04;70468.44;;;-142.70;41.45
6224;BME280;3145;42.726;23.342;2023-07-16T08:03:32;70526.84;;;-142.70;42.51
6224;BME280;3145;42.726;23.342;2023-07-16T08:06:00;70538.91;;;-142.70;42.29
6224;BME280;3145;42.726;23.342;2023-07-16T08:08:27;70530.84;;;-142.70;42.30
6224;BME280;3145;42.726;23.342;2023-07-16T08:10:54;70466.44;;;-142.70;41.87
6224;BME280;3145;42.726;23.342;2023-07-16T08:13:21;70422.13;;;-142.70;40.33
6224;BME280;3145;42.726;23.342;2023-07-16T08:15:47;70389.94;;;-142.70;40.67
6224;BME280;3145;42.726;23.342;2023-07-16T08:18:14;70379.88;;;-142.70;40.25
6224;BME280;3145;42.726;23.342;2023-07-16T08:20:41;70442.28;;;-142.70;39.88
6224;BME280;3145;42.726;23.342;2023-07-16T08:23:09;70406.03;;;-142.70;40.19
6224;BME280;3145;42.726;23.342;2023-07-16T08:25:35;70369.81;;;-142.70;39.08
6224;BME280;3145;42.726;23.342;2023-07-16T08:28:03;70412.06;;;-142.70;40.57
6224;BME280;3145;42.726;23.342;2023-07-16T08:30:29;70402.00;;;-142.70;40.49
6224;BME280;3145;42.726;23.342;2023-07-16T08:32:56;70373.81;;;-142.70;40.04
6224;BME280;3145;42.726;23.342;2023-07-16T08:35:23;70385.91;;;-142.70;39.69
6224;BME280;3145;42.726;23.342;2023-07-16T08:37:49;70377.84;;;-142.70;39.31
6224;BME280;3145;42.726;23.342;2023-07-16T08:40:17;70317.47;;;-142.70;39.65
6224;BME280;3145;42.726;23.342;2023-07-16T08:42:45;70279.19;;;-142.70;38.90
6224;BME280;3145;42.726;23.342;2023-07-16T08:45:13;70244.97;;;-142.70;38.38
6224;BME280;3145;42.726;23.342;2023-07-16T08:47:40;70307.38;;;-142.70;38.16
6224;BME280;3145;42.726;23.342;2023-07-16T08:50:08;70311.41;;;-142.70;39.11
6224;BME280;3145;42.726;23.342;2023-07-16T08:52:35;70325.50;;;-142.70;39.04
6224;BME280;3145;42.726;23.342;2023-07-16T08:55:03;70289.28;;;-142.70;39.02
6224;BME280;3145;42.726;23.342;2023-07-16T08:57:31;70279.19;;;-142.70;38.78
6224;BME280;3145;42.726;23.342;2023-07-16T08:59:58;70329.53;;;-142.70;39.33
6224;BME280;3145;42.726;23.342;2023-07-16T09:02:25;70309.41;;;-142.70;39.40
6224;BME280;3145;42.726;23.342;2023-07-16T09:04:53;70303.38;;;-142.70;37.95
6224;BME280;3145;42.726;23.342;2023-07-16T09:07:20;70287.25;;;-142.70;38.98
6224;BME280;3145;42.726;23.342;2023-07-16T09:09:55;70261.09;;;-142.70;38.16
6224;BME280;3145;42.726;23.342;2023-07-16T09:12:23;70234.91;;;-142.70;39.13
6224;BME280;3145;42.726;23.342;2023-07-16T09:14:52;70224.84;;;-142.70;39.14
6224;BME280;3145;42.726;23.342;2023-07-16T09:17:20;70224.84;;;-142.70;39.32
6224;BME280;3145;42.726;23.342;2023-07-16T09:19:47;70216.78;;;-142.70;38.28
6224;BME280;3145;42.726;23.342;2023-07-16T09:22:16;70236.94;;;-142.70;38.59
6224;BME280;3145;42.726;23.342;2023-07-16T09:24:44;70273.16;;;-142.70;39.36
6224;BME280;3145;42.726;23.342;2023-07-16T09:27:12;70198.69;;;-142.70;38.71
6224;BME280;3145;42.726;23.342;2023-07-16T09:29:38;70138.28;;;-142.70;36.89
6224;BME280;3145;42.726;23.342;2023-07-16T09:32:07;70176.53;;;-142.70;37.58
6224;BME280;3145;42.726;23.342;2023-07-16T09:34:34;70180.56;;;-142.70;37.86
6224;BME280;3145;42.726;23.342;2023-07-16T09:37:02;70212.78;;;-142.70;38.04
6224;BME280;3145;42.726;23.342;2023-07-16T09:39:29;70198.69;;;-142.70;37.50
6224;BME280;3145;42.726;23.342;2023-07-16T09:41:55;70154.38;;;-142.70;37.66
6224;BME280;3145;42.726;23.342;2023-07-16T09:44:23;70188.63;;;-142.70;37.65
6224;BME280;3145;42.726;23.342;2023-07-16T09:46:49;70200.69;;;-142.70;37.32
6224;BME280;3145;42.726;23.342;2023-07-16T09:49:18;70190.63;;;-142.70;37.38
6224;BME280;3145;42.726;23.342;2023-07-16T09:51:45;70208.75;;;-142.70;37.20
6224;BME280;3145;42.726;23.342;2023-07-16T09:54:13;70164.44;;;-142.70;38.07
6224;BME280;3145;42.726;23.342;2023-07-16T09:56:43;70122.19;;;-142.70;37.94
6224;BME280;3145;42.726;23.342;2023-07-16T09:59:13;70120.16;;;-142.70;37.40
6224;BME280;3145;42.726;23.342;2023-07-16T10:01:41;70087.97;;;-142.70;37.24
6224;BME280;3145;42.726;23.342;2023-07-16T10:04:12;70164.44;;;-142.70;37.91
6224;BME280;3145;42.726;23.342;2023-07-16T10:06:50;70142.31;;;-142.70;37.57
6224;BME280;3145;42.726;23.342;2023-07-16T10:09:34;70152.38;;;-142.70;37.12
6224;BME280;3145;42.726;23.342;2023-07-16T10:12:22;70110.09;;;-142.70;36.47
6224;BME280;3145;42.726;23.342;2023-07-16T10:14:51;70100.03;;;-142.70;36.73
6224;BME280;3145;42.726;23.342;2023-07-16T10:17:19;70146.34;;;-142.70;37.25
6224;BME280;3145;42.726;23.342;2023-07-16T10:19:50;70134.25;;;-142.70;37.05
6224;BME280;3145;42.726;23.342;2023-07-16T10:22:19;70132.25;;;-142.70;36.87
6224;BME280;3145;42.726;23.342;2023-07-16T10:24:52;70118.16;;;-142.70;36.31
6224;BME280;3145;42.726;23.342;2023-07-16T10:27:30;70130.22;;;-142.70;36.39
6224;BME280;3145;42.726;23.342;2023-07-16T10:29:58;70091.97;;;-142.70;35.71
6224;BME280;3145;42.726;23.342;2023-07-16T10:32:27;70091.97;;;-142.70;35.81
6224;BME280;3145;42.726;23.342;2023-07-16T10:34:55;70073.88;;;-142.70;36.30
6224;BME280;3145;42.726;23.342;2023-07-16T10:37:24;70029.56;;;-142.70;36.09
6224;BME280;3145;42.726;23.342;2023-07-16T10:39:52;70009.44;;;-142.70;35.05
6224;BME280;3145;42.726;23.342;2023-07-16T10:42:20;70007.44;;;-142.70;34.95
6224;BME280;3145;42.726;23.342;2023-07-16T10:44:48;69987.31;;;-142.70;35.16
6224;BME280;3145;42.726;23.342;2023-07-16T10:47:19;69961.13;;;-142.70;34.70
6224;BME280;3145;42.726;23.342;2023-07-16T10:49:47;69918.88;;;-142.70;33.74
6224;BME280;3145;42.726;23.342;2023-07-16T10:52:14;69910.81;;;-142.70;35.13
6224;BME280;3145;42.726;23.342;2023-07-16T10:54:42;69890.69;;;-142.70;34.38
6224;BME280;3145;42.726;23.342;2023-07-16T10:57:11;69916.84;;;-142.70;34.79
6224;BME280;3145;42.726;23.342;2023-07-16T10:59:38;69957.09;;;-142.70;33.96
6224;BME280;3145;42.726;23.342;2023-07-16T11:02:10;69947.03;;;-142.70;34.40
6224;BME280;3145;42.726;23.342;2023-07-16T11:04:37;69934.97;;;-142.70;33.92
6224;BME280;3145;42.726;23.342;2023-07-16T11:07:05;69936.97;;;-142.70;34.48
6224;BME280;3145;42.726;23.342;2023-07-16T11:09:59;69975.22;;;-142.70;34.68
6224;BME280;3145;42.726;23.342;2023-07-16T11:12:39;69947.03;;;-142.70;34.25
6224;BME280;3145;42.726;23.342;2023-07-16T11:15:09;69882.63;;;-142.70;33.97
6224;BME280;3145;42.726;23.342;2023-07-16T11:17:38;69882.63;;;-142.70;33.50
6224;BME280;3145;42.726;23.342;2023-07-16T11:20:08;69932.94;;;-142.70;35.08
6224;BME280;3145;42.726;23.342;2023-07-16T11:22:37;69959.13;;;-142.70;34.08
6224;BME280;3145;42.726;23.342;2023-07-16T11:25:11;69947.03;;;-142.70;35.11
6224;BME280;3145;42.726;23.342;2023-07-16T11:27:40;69936.97;;;-142.70;35.03
6224;BME280;3145;42.726;23.342;2023-07-16T11:30:08;69918.88;;;-142.70;33.52
6224;BME280;3145;42.726;23.342;2023-07-16T11:32:36;69906.78;;;-142.70;32.51
6224;BME280;3145;42.726;23.342;2023-07-16T11:35:05;69894.72;;;-142.70;32.65
6224;BME280;3145;42.726;23.342;2023-07-16T11:37:34;69838.34;;;-142.70;31.86
6224;BME280;3145;42.726;23.342;2023-07-16T11:40:03;69790.03;;;-142.70;32.01
6224;BME280;3145;42.726;23.342;2023-07-16T11:42:32;69739.72;;;-142.70;31.23
6224;BME280;3145;42.726;23.342;2023-07-16T11:44:59;69854.44;;;-142.70;31.94
6224;BME280;3145;42.726;23.342;2023-07-16T11:47:27;69910.81;;;-142.70;32.14
6224;BME280;3145;42.726;23.342;2023-07-16T11:49:54;69886.66;;;-142.70;32.29
6224;BME280;3145;42.726;23.342;2023-07-16T11:52:23;69890.69;;;-142.70;32.58
6224;BME280;3145;42.726;23.342;2023-07-16T11:54:51;69868.53;;;-142.70;32.27
6224;BME280;3145;42.726;23.342;2023-07-16T11:57:18;69826.28;;;-142.70;31.98
6224;BME280;3145;42.726;23.342;2023-07-16T11:59:46;69842.38;;;-142.70;31.56
6224;BME280;3145;42.726;23.342;2023-07-16T12:02:13;69844.38;;;-142.70;31.21
6224;BME280;3145;42.726;23.342;2023-07-16T12:04:39;69836.34;;;-142.70;31.61
6224;BME280;3145;42.726;23.342;2023-07-16T12:07:07;69830.28;;;-142.70;30.88
6224;BME280;3145;42.726;23.342;2023-07-16T12:09:33;69769.91;;;-142.70;31.50
6224;BME280;3145;42.726;23.342;2023-07-16T12:12:00;69705.50;;;-142.70;30.80
6224;BME280;3145;42.726;23.342;2023-07-16T12:14:28;69701.47;;;-142.70;30.58
6224;BME280;3145;42.726;23.342;2023-07-16T12:16:56;69673.28;;;-142.70;29.40
6224;BME280;3145;42.726;23.342;2023-07-16T12:19:24;69631.03;;;-142.70;28.81
6224;BME280;3145;42.726;23.342;2023-07-16T12:21:51;69600.84;;;-142.70;28.51
6224;BME280;3145;42.726;23.342;2023-07-16T12:24:17;69562.59;;;-142.70;28.96
6224;BME280;3145;42.726;23.342;2023-07-16T12:26:44;69556.53;;;-142.70;28.54
6224;BME280;3145;42.726;23.342;2023-07-16T12:29:11;69620.97;;;-142.70;28.74
6224;BME280;3145;42.726;23.342;2023-07-16T12:31:37;69689.41;;;-142.70;29.37
6224;BME280;3145;42.726;23.342;2023-07-16T12:34:05;69697.44;;;-142.70;28.70
6224;BME280;3145;42.726;23.342;2023-07-16T12:36:32;69749.78;;;-142.70;28.29
6224;BME280;3145;42.726;23.342;2023-07-16T12:38:59;69781.97;;;-142.70;28.51
6224;BME280;3145;42.726;23.342;2023-07-16T12:41:25;69794.06;;;-142.70;29.11
6224;BME280;3145;42.726;23.342;2023-07-16T12:43:52;69771.91;;;-142.70;28.71
6224;BME280;3145;42.726;23.342;2023-07-16T12:46:19;69765.88;;;-142.70;28.73
6224;BME280;3145;42.726;23.342;2023-07-16T12:48:46;69765.88;;;-142.70;28.91
6224;BME280;3145;42.726;23.342;2023-07-16T12:51:14;69814.19;;;-142.70;29.59
6224;BME280;3145;42.726;23.342;2023-07-16T12:53:40;69842.38;;;-142.70;29.17